Time;durP1;ratioP1;P1;durP2;ratioP2;P2;SDS_P1;SDS_P2;PMS_P1;PMS_P2;Temp;Humidity;BMP_temperature;BMP_pressure;BME280_temperature;BME280_humidity;BME280_pressure;Samples;Min_cycle;Max_cycle;Signal;HPM_P1;HPM_P2
2024/03/14 00:00:18;;;;;;;5.57;1.85;;;;;;;17.30;58.80;101236.44;10445899;28;20422;-59
2024/03/14 00:05:20;;;;;;;2.47;1.50;;;;;;;17.29;58.58;101235.63;10448421;28;20021;-59
2024/03/14 00:10:20;;;;;;;3.10;1.83;;;;;;;17.31;58.28;101227.31;10455444;28;20025;-59
2024/03/14 00:15:20;;;;;;;2.40;1.67;;;;;;;17.35;57.44;101231.03;10454763;28;20072;-59
2024/03/14 00:20:22;;;;;;;2.88;1.85;;;;;;;17.35;58.09;101236.41;10454741;28;20279;-60
2024/03/14 00:25:22;;;;;;;2.83;1.88;;;;;;;17.35;57.09;101231.84;10453700;28;20155;-59
2024/03/14 00:30:22;;;;;;;2.50;1.57;;;;;;;17.35;57.28;101228.38;10454290;28;20090;-59
2024/03/14 00:35:23;;;;;;;2.47;1.58;;;;;;;17.33;57.83;101225.97;10453859;28;20382;-60
2024/03/14 00:40:24;;;;;;;2.78;1.50;;;;;;;17.31;57.53;101224.63;10454196;28;20043;-60
2024/03/14 00:45:24;;;;;;;2.53;1.83;;;;;;;17.35;56.90;101223.00;10453150;28;20028;-60
2024/03/14 00:50:24;;;;;;;3.27;1.57;;;;;;;17.36;56.97;101212.00;10452732;28;20025;-59
2024/03/14 00:55:25;;;;;;;2.90;1.60;;;;;;;17.35;58.20;101217.66;10453189;28;20279;-59
2024/03/14 01:00:26;;;;;;;2.73;1.57;;;;;;;17.32;57.68;101219.00;10453379;28;20290;-59
2024/03/14 01:05:26;;;;;;;2.45;1.60;;;;;;;17.33;57.20;101214.44;10453112;28;20275;-59
2024/03/14 01:10:26;;;;;;;3.85;1.33;;;;;;;17.32;57.33;101210.97;10453068;28;20476;-59
2024/03/14 01:15:27;;;;;;;2.60;1.50;;;;;;;17.32;58.29;101213.63;10452033;28;20044;-59
2024/03/14 01:20:27;;;;;;;3.10;1.47;;;;;;;17.32;57.85;101208.28;10451528;28;20287;-59
2024/03/14 01:25:27;;;;;;;2.42;1.60;;;;;;;17.33;57.55;101209.88;10452270;28;20746;-59
2024/03/14 01:30:28;;;;;;;2.63;1.63;;;;;;;17.33;57.00;101215.25;10452142;28;20035;-59
2024/03/14 01:35:29;;;;;;;2.33;1.60;;;;;;;17.31;57.04;101204.00;10451565;28;20623;-59
2024/03/14 01:40:31;;;;;;;6.35;2.13;;;;;;;17.35;57.61;101204.25;10451646;28;20033;-60
2024/03/14 01:45:32;;;;;;;2.42;1.23;;;;;;;17.35;57.75;101193.53;10451148;28;20025;-60
2024/03/14 01:50:33;;;;;;;1.50;1.17;;;;;;;17.36;57.68;101192.44;10451575;28;20033;-59
2024/03/14 01:55:33;;;;;;;4.07;1.50;;;;;;;17.36;57.09;101184.41;10451102;28;20029;-59
2024/03/14 02:00:38;;;;;;;2.08;1.67;;;;;;;17.34;58.01;101189.25;10450558;28;20404;-59
2024/03/14 02:05:47;;;;;;;3.22;2.22;;;;;;;17.37;57.05;101183.31;10450604;28;20021;-60
2024/03/14 02:10:47;;;;;;;1.73;1.20;;;;;;;17.34;56.79;101182.00;10449047;28;20043;-59
2024/03/14 02:15:48;;;;;;;2.67;1.50;;;;;;;17.35;56.56;101172.88;10450049;28;20021;-59
2024/03/14 02:20:48;;;;;;;1.80;1.20;;;;;;;17.38;57.54;101174.19;10450294;28;20958;-59
2024/03/14 02:25:49;;;;;;;2.93;1.30;;;;;;;17.36;57.09;101160.28;10449773;28;20020;-59
2024/03/14 02:30:49;;;;;;;2.40;1.70;;;;;;;17.33;57.47;101158.94;10449772;28;20267;-59
2024/03/14 02:35:49;;;;;;;2.90;1.33;;;;;;;17.34;57.33;101154.41;10448882;28;20017;-59
2024/03/14 02:40:50;;;;;;;4.03;1.25;;;;;;;17.33;58.01;101152.78;10449440;28;20287;-60
2024/03/14 02:45:50;;;;;;;1.30;1.07;;;;;;;17.35;56.39;101153.31;10448574;28;20020;-60
2024/03/14 02:50:50;;;;;;;4.60;1.27;;;;;;;17.33;57.54;101144.75;10449181;28;20275;-60
2024/03/14 02:55:52;;;;;;;2.10;1.20;;;;;;;17.34;57.45;101143.66;10448670;28;20287;-59
2024/03/14 03:00:53;;;;;;;1.75;1.15;;;;;;;17.35;56.87;101137.22;10448919;28;20412;-59
2024/03/14 03:05:54;;;;;;;2.47;1.13;;;;;;;17.33;57.02;101128.66;10447975;28;20087;-59
2024/03/14 03:10:54;;;;;;;1.98;1.20;;;;;;;17.31;57.68;101136.19;10448221;28;20075;-58
2024/03/14 03:15:54;;;;;;;2.33;1.55;;;;;;;17.32;57.82;101121.72;10447479;28;20649;-60
2024/03/14 03:20:55;;;;;;;2.47;1.35;;;;;;;17.34;57.53;101116.88;10448294;28;20027;-60
2024/03/14 03:25:55;;;;;;;2.13;1.37;;;;;;;17.31;57.13;101117.44;10447526;28;20082;-59
2024/03/14 03:30:55;;;;;;;1.67;1.27;;;;;;;17.33;58.00;101112.59;10447861;28;20705;-60
2024/03/14 03:35:56;;;;;;;2.53;1.50;;;;;;;17.33;56.98;101115.28;10447674;28;20291;-59
2024/03/14 03:40:56;;;;;;;1.80;1.25;;;;;;;17.34;57.50;101115.00;10452968;28;20017;-59
2024/03/14 03:45:57;;;;;;;2.50;1.35;;;;;;;17.34;57.40;101109.63;10460953;28;20100;-59
2024/03/14 03:50:57;;;;;;;2.10;1.10;;;;;;;17.35;56.25;101102.38;10459840;28;20465;-59
2024/03/14 03:56:00;;;;;;;1.53;1.00;;;;;;;17.36;56.80;101106.66;10460876;28;20021;-60
2024/03/14 04:01:06;;;;;;;2.25;1.10;;;;;;;17.33;56.98;101091.94;10460957;28;20279;-59
2024/03/14 04:06:10;;;;;;;1.58;1.17;;;;;;;17.32;56.49;101093.03;10459545;28;20021;-59
2024/03/14 04:11:15;;;;;;;1.77;1.05;;;;;;;17.31;57.78;101087.94;10460791;28;20053;-59
2024/03/14 04:16:15;;;;;;;1.55;1.13;;;;;;;17.32;56.67;101086.88;10459223;28;20637;-59
2024/03/14 04:21:16;;;;;;;1.90;1.20;;;;;;;17.33;56.50;101088.47;10459553;28;20109;-59
2024/03/14 04:26:17;;;;;;;2.38;1.40;;;;;;;17.34;57.49;101084.69;10457056;28;20291;-58
2024/03/14 04:31:20;;;;;;;1.67;0.95;;;;;;;17.35;57.71;101097.81;10458714;28;20108;-60
2024/03/14 04:36:20;;;;;;;2.45;1.10;;;;;;;17.35;56.78;101089.78;10455940;28;20559;-58
2024/03/14 04:41:21;;;;;;;2.83;1.30;;;;;;;17.49;57.01;101095.31;10439517;28;20020;-60
2024/03/14 04:46:21;;;;;;;1.70;1.00;;;;;;;17.45;56.50;101091.59;10456433;28;20013;-59
2024/03/14 04:51:22;;;;;;;2.75;1.08;;;;;;;17.45;57.30;101089.72;10453897;28;20275;-58
2024/03/14 04:56:22;;;;;;;2.88;1.17;;;;;;;17.45;57.57;101092.41;10450281;28;20028;-58
2024/03/14 05:01:23;;;;;;;1.80;1.07;;;;;;;17.45;57.94;101095.09;10449474;28;20492;-58
2024/03/14 05:06:25;;;;;;;2.78;1.05;;;;;;;17.43;56.66;101096.44;10447296;28;20329;-58
2024/03/14 05:11:25;;;;;;;1.77;1.20;;;;;;;17.37;57.19;101084.94;10450812;28;20706;-58
2024/03/14 05:16:26;;;;;;;2.50;1.43;;;;;;;17.32;58.35;101093.03;10448320;28;20230;-59
2024/03/14 05:21:26;;;;;;;1.92;0.82;;;;;;;17.32;57.01;101093.03;10448772;28;20943;-58
2024/03/14 05:26:29;;;;;;;2.20;1.03;;;;;;;17.27;57.21;101100.28;10447775;28;20024;-58
2024/03/14 05:31:30;;;;;;;1.60;0.85;;;;;;;17.25;57.03;101097.88;10449246;28;20372;-58
2024/03/14 05:36:30;;;;;;;1.48;0.90;;;;;;;17.27;56.92;101098.41;10446471;28;20048;-59
2024/03/14 05:41:31;;;;;;;1.35;0.80;;;;;;;17.27;56.77;101090.34;10451828;28;20029;-59
2024/03/14 05:46:31;;;;;;;1.55;1.10;;;;;;;17.27;57.41;101086.88;10450958;28;20132;-58
2024/03/14 05:51:31;;;;;;;2.10;1.00;;;;;;;17.30;57.25;101087.16;10447853;28;20032;-58
2024/03/14 05:56:33;;;;;;;2.30;0.90;;;;;;;17.33;56.44;101072.38;10451160;28;20271;-59
2024/03/14 06:01:34;;;;;;;1.58;1.05;;;;;;;17.32;56.62;101076.94;10451530;28;20283;-59
2024/03/14 06:06:36;;;;;;;3.45;1.38;;;;;;;17.41;57.06;101077.97;10450196;28;20467;-59
2024/03/14 06:11:37;;;;;;;3.40;1.42;;;;;;;17.48;56.31;101080.31;10450302;28;20400;-61
2024/03/14 06:16:37;;;;;;;11.23;1.90;;;;;;;17.51;57.29;101083.22;10450038;28;20035;-59
2024/03/14 06:21:40;;;;;;;10.20;2.38;;;;;;;17.51;58.64;101077.88;10450442;28;20029;-59
2024/03/14 06:26:41;;;;;;;12.63;3.90;;;;;;;17.48;57.62;101081.13;10448814;28;20413;-60
2024/03/14 06:31:41;;;;;;;26.42;3.53;;;;;;;17.43;57.35;101083.03;10449883;28;20089;-60
2024/03/14 06:36:42;;;;;;;15.45;2.55;;;;;;;17.42;58.09;101079.56;10449138;28;20104;-59
2024/03/14 06:41:42;;;;;;;26.50;4.17;;;;;;;17.38;58.18;101086.53;10449529;28;20059;-60
2024/03/14 06:46:43;;;;;;;64.22;7.40;;;;;;;17.30;59.26;101089.81;10448094;28;20283;-58
2024/03/14 06:51:44;;;;;;;31.63;6.20;;;;;;;17.26;57.89;101091.44;10448185;28;20515;-58
2024/03/14 06:56:45;;;;;;;49.75;9.57;;;;;;;17.22;60.32;101090.41;10448738;28;20279;-59
2024/03/14 07:01:46;;;;;;;47.58;6.78;;;;;;;17.20;60.14;101076.50;10448452;28;20025;-60
2024/03/14 07:06:47;;;;;;;34.17;6.55;;;;;;;17.32;59.51;101079.63;10448903;28;20020;-60
2024/03/14 07:11:47;;;;;;;19.93;5.03;;;;;;;17.27;59.13;101086.88;10446487;28;20041;-59
2024/03/14 07:16:48;;;;;;;21.90;4.78;;;;;;;17.23;59.01;101075.91;10447658;28;20333;-59
2024/03/14 07:21:53;;;;;;;23.60;5.13;;;;;;;17.19;58.63;101080.25;10448380;28;20075;-59
2024/03/14 07:26:54;;;;;;;15.05;4.75;;;;;;;17.16;58.73;101080.78;10448490;28;20280;-59
2024/03/14 07:31:54;;;;;;;24.35;5.72;;;;;;;17.13;58.78;101071.41;10446718;28;20021;-59
2024/03/14 07:36:56;;;;;;;17.03;4.33;;;;;;;17.12;58.51;101077.84;10444912;28;20063;-59
2024/03/14 07:41:58;;;;;;;13.95;3.20;;;;;;;17.09;57.76;101075.75;10445006;28;20340;-59
2024/03/14 07:46:58;;;;;;;11.05;3.28;;;;;;;17.08;58.48;101081.38;10446185;28;20480;-59
2024/03/14 07:51:58;;;;;;;17.10;4.32;;;;;;;17.05;58.04;101076.53;10445919;28;20029;-58
2024/03/14 07:56:59;;;;;;;19.57;5.17;;;;;;;17.03;58.31;101087.53;10445610;28;20021;-59
2024/03/14 08:02:01;;;;;;;15.67;3.27;;;;;;;17.08;58.86;101087.53;10443740;28;20279;-59
2024/03/14 08:07:10;;;;;;;13.23;3.92;;;;;;;17.11;57.71;101083.50;10446293;28;20379;-59
2024/03/14 08:12:10;;;;;;;7.13;2.42;;;;;;;17.10;58.91;101080.03;10444832;28;20073;-58
2024/03/14 08:17:13;;;;;;;8.87;2.70;;;;;;;17.09;57.96;101081.09;10446043;28;20603;-59
2024/03/14 08:22:14;;;;;;;7.50;3.33;;;;;;;17.08;57.36;101084.84;10444050;28;20765;-59
2024/03/14 08:27:15;;;;;;;9.68;2.45;;;;;;;17.06;57.94;101087.00;10448553;28;20035;-59
2024/03/14 08:32:16;;;;;;;9.15;2.58;;;;;;;17.02;58.11;101091.31;10453015;28;20678;-59
2024/03/14 08:37:16;;;;;;;11.38;4.05;;;;;;;16.95;58.36;101088.94;10453495;28;20021;-59
2024/03/14 08:42:23;;;;;;;7.15;3.33;;;;;;;16.94;59.30;101076.63;10452321;28;20021;-59
2024/03/14 08:47:23;;;;;;;11.40;3.15;;;;;;;16.94;59.46;101067.78;10452682;28;20033;-59
2024/03/14 08:52:26;;;;;;;7.63;1.98;;;;;;;16.96;58.51;101073.66;10452170;28;20029;-59
2024/03/14 08:57:27;;;;;;;7.45;2.17;;;;;;;16.98;59.55;101068.84;10451856;28;20462;-58
2024/03/14 09:02:27;;;;;;;5.32;2.17;;;;;;;16.97;58.48;101077.16;10451774;28;20029;-59
2024/03/14 09:07:28;;;;;;;8.38;2.42;;;;;;;16.93;59.13;101063.50;10452085;28;20028;-59
2024/03/14 09:12:28;;;;;;;5.88;1.92;;;;;;;16.92;59.76;101065.34;10450886;28;20128;-60
2024/03/14 09:17:29;;;;;;;5.15;2.28;;;;;;;16.91;58.55;101071.00;10451440;28;20039;-59
2024/03/14 09:22:29;;;;;;;6.68;1.60;;;;;;;16.88;59.42;101061.63;10450971;28;20021;-59
2024/03/14 09:27:32;;;;;;;4.97;1.70;;;;;;;16.89;58.96;101065.91;10451429;28;20409;-59
2024/03/14 09:32:34;;;;;;;6.10;2.25;;;;;;;16.90;59.71;101066.72;10450635;28;20337;-59
2024/03/14 09:37:34;;;;;;;5.93;1.42;;;;;;;16.90;58.76;101064.03;10450020;28;20040;-59
2024/03/14 09:42:36;;;;;;;6.70;1.73;;;;;;;16.90;58.22;101070.19;10450353;28;20052;-59
2024/03/14 09:47:37;;;;;;;6.20;2.10;;;;;;;16.91;58.88;101065.63;10450753;28;20016;-60
2024/03/14 09:52:38;;;;;;;4.72;1.85;;;;;;;16.90;58.86;101070.19;10449775;28;20032;-59
2024/03/14 09:57:39;;;;;;;3.25;1.88;;;;;;;16.90;58.77;101074.75;10450170;28;20028;-59
2024/03/14 10:02:44;;;;;;;3.55;1.70;;;;;;;16.93;58.89;101064.31;10449228;28;20504;-59
2024/03/14 10:07:45;;;;;;;4.22;1.33;;;;;;;16.97;59.40;101059.19;10449487;28;20405;-59
2024/03/14 10:12:53;;;;;;;3.67;1.38;;;;;;;16.97;59.56;101050.34;10449300;28;20072;-59
2024/03/14 10:17:53;;;;;;;6.93;1.67;;;;;;;17.01;58.85;101054.06;10449007;28;20655;-59
2024/03/14 10:22:54;;;;;;;4.13;1.30;;;;;;;17.08;58.56;101049.22;10447082;28;20028;-59
2024/03/14 10:27:55;;;;;;;5.57;1.40;;;;;;;17.11;57.82;101044.09;10449201;28;20033;-59
2024/03/14 10:32:56;;;;;;;2.35;1.00;;;;;;;17.13;58.42;101036.59;10448029;28;20017;-59
2024/03/14 10:37:59;;;;;;;4.80;1.23;;;;;;;17.15;58.41;101039.00;10448386;28;20083;-59
2024/03/14 10:43:03;;;;;;;4.00;0.90;;;;;;;17.16;58.94;101036.03;10448031;28;20020;-59
2024/03/14 10:48:07;;;;;;;5.20;2.05;;;;;;;17.19;57.78;101032.81;10446760;28;20027;-59
2024/03/14 10:53:08;;;;;;;2.45;0.95;;;;;;;17.21;57.86;101027.97;10432929;28;20029;-58
2024/03/14 10:58:08;;;;;;;3.28;0.85;;;;;;;17.25;57.35;101017.50;10446724;28;20695;-59
2024/03/14 11:03:13;;;;;;;4.07;0.90;;;;;;;17.30;58.65;101012.09;10445791;28;20087;-58
2024/03/14 11:08:16;;;;;;;2.78;1.25;;;;;;;17.32;57.25;101004.59;10446357;28;20031;-59
2024/03/14 11:13:25;;;;;;;1.85;0.88;;;;;;;17.36;58.45;101008.28;10446360;28;20399;-59
2024/03/14 11:18:32;;;;;;;2.38;1.08;;;;;;;17.38;56.71;101000.78;10445747;28;20033;-60
2024/03/14 11:23:34;;;;;;;3.00;1.05;;;;;;;17.40;57.87;100981.72;10445372;28;20040;-59
2024/03/14 11:28:36;;;;;;;2.42;0.82;;;;;;;17.43;56.89;100987.34;10446729;28;20055;-59
2024/03/14 11:33:38;;;;;;;2.30;0.70;;;;;;;17.45;56.90;100987.84;10446640;28;20108;-59
2024/03/14 11:38:40;;;;;;;3.65;0.95;;;;;;;17.45;56.92;100977.13;10446710;28;20028;-59
2024/03/14 11:43:41;;;;;;;1.95;0.68;;;;;;;17.47;58.27;100974.16;10446002;28;20107;-60
2024/03/14 11:48:42;;;;;;;1.65;0.80;;;;;;;17.50;58.05;100973.59;10446476;28;20025;-59
2024/03/14 11:53:43;;;;;;;1.98;0.60;;;;;;;17.49;57.70;100962.06;10444211;28;20044;-59
2024/03/14 11:58:44;;;;;;;5.25;1.00;;;;;;;17.50;57.83;100962.88;10446744;28;20033;-59
2024/03/14 12:03:44;;;;;;;2.33;1.00;;;;;;;17.49;58.14;100967.44;10451278;28;20025;-59
2024/03/14 12:08:47;;;;;;;2.53;0.80;;;;;;;17.55;56.93;100968.22;10454493;28;20119;-60
2024/03/14 12:13:48;;;;;;;1.60;0.60;;;;;;;17.57;56.50;100962.56;10452726;28;20545;-59
2024/03/14 12:18:52;;;;;;;1.10;0.77;;;;;;;17.56;57.30;100945.66;10452742;28;20362;-59
2024/03/14 12:23:55;;;;;;;2.95;0.63;;;;;;;17.51;57.75;100943.03;10453486;28;20016;-59
2024/03/14 12:28:56;;;;;;;1.88;1.00;;;;;;;17.54;57.33;100937.91;10454041;28;20044;-58
2024/03/14 12:33:58;;;;;;;1.13;0.73;;;;;;;17.50;57.35;100926.13;10451856;28;20556;-59
2024/03/14 12:38:59;;;;;;;2.08;1.23;;;;;;;17.51;57.91;100918.88;10451894;28;20033;-59
2024/03/14 12:43:59;;;;;;;1.85;0.73;;;;;;;17.53;57.66;100911.41;10452731;28;20020;-60
2024/03/14 12:49:07;;;;;;;1.02;0.60;;;;;;;17.53;57.56;100898.78;10452924;28;20514;-60
2024/03/14 12:54:09;;;;;;;0.85;0.40;;;;;;;17.59;57.83;100893.34;10434698;28;20040;-59
2024/03/14 12:59:12;;;;;;;1.65;0.60;;;;;;;17.59;57.59;100878.06;10452150;28;20896;-59
2024/03/14 13:04:13;;;;;;;1.67;0.40;;;;;;;17.64;57.81;100872.66;10452190;28;20039;-58
2024/03/14 13:09:22;;;;;;;1.50;0.45;;;;;;;17.67;57.83;100876.66;10451725;28;20502;-59
2024/03/14 13:14:25;;;;;;;1.30;0.60;;;;;;;17.66;57.37;100867.81;10437318;28;20111;-59
2024/03/14 13:19:25;;;;;;;2.08;0.70;;;;;;;17.65;57.39;100854.69;10451708;28;20037;-59
2024/03/14 13:24:25;;;;;;;1.65;0.60;;;;;;;17.67;57.26;100853.31;10451349;28;20028;-59
2024/03/14 13:29:26;;;;;;;0.80;0.43;;;;;;;17.65;57.08;100858.16;10451498;28;20021;-57
2024/03/14 13:34:26;;;;;;;1.65;0.82;;;;;;;17.65;56.84;100852.00;10450434;28;20283;-59
2024/03/14 13:39:27;;;;;;;1.50;0.80;;;;;;;17.66;58.11;100845.56;10451302;28;20024;-59
2024/03/14 13:44:29;;;;;;;1.27;0.50;;;;;;;17.66;57.38;100837.53;10449903;28;20854;-60
2024/03/14 13:49:37;;;;;;;1.17;0.50;;;;;;;17.63;57.65;100821.97;10450520;28;20887;-59
2024/03/14 13:54:38;;;;;;;2.10;0.68;;;;;;;17.61;58.64;100822.28;10449762;28;20036;-58
2024/03/14 13:59:46;;;;;;;2.47;0.40;;;;;;;17.60;57.58;100815.31;10450391;28;20025;-59
2024/03/14 14:04:47;;;;;;;1.83;0.67;;;;;;;17.57;58.59;100813.22;10449524;28;20032;-58
2024/03/14 14:09:49;;;;;;;0.95;0.65;;;;;;;17.54;57.95;100795.81;10448160;28;20434;-59
2024/03/14 14:14:52;;;;;;;2.10;0.70;;;;;;;17.58;57.34;100800.59;10449027;28;20037;-58
2024/03/14 14:19:54;;;;;;;0.70;0.50;;;;;;;17.57;57.65;100805.16;10449371;28;20051;-59
2024/03/14 14:24:55;;;;;;;1.25;0.40;;;;;;;17.59;58.33;100794.16;10448237;28;20052;-59
2024/03/14 14:29:55;;;;;;;3.20;0.50;;;;;;;17.60;58.64;100787.69;10449445;28;20107;-59
2024/03/14 14:34:56;;;;;;;0.70;0.40;;;;;;;17.57;57.93;100783.72;10448316;28;20295;-59
2024/03/14 14:39:56;;;;;;;1.02;0.50;;;;;;;17.57;58.39;100764.94;10448434;28;20278;-59
2024/03/14 14:44:56;;;;;;;1.53;0.73;;;;;;;17.57;57.84;100759.59;10446604;28;20142;-59
2024/03/14 14:49:56;;;;;;;0.70;0.50;;;;;;;17.57;58.02;100759.59;10448265;28;20819;-59
2024/03/14 14:54:59;;;;;;;0.93;0.50;;;;;;;17.55;57.80;100748.34;10447492;28;20353;-59
2024/03/14 15:00:00;;;;;;;0.98;0.57;;;;;;;17.54;57.96;100739.53;10447700;28;20028;-59
2024/03/14 15:05:00;;;;;;;0.82;0.70;;;;;;;17.51;57.50;100731.22;10446257;28;20013;-60
2024/03/14 15:10:07;;;;;;;0.63;0.40;;;;;;;17.50;57.77;100732.31;10447553;28;20431;-59
2024/03/14 15:15:12;;;;;;;0.77;0.45;;;;;;;17.51;58.15;100732.03;10446244;28;20801;-59
2024/03/14 15:20:13;;;;;;;0.82;0.32;;;;;;;17.49;58.39;100730.72;10445990;28;20056;-59
2024/03/14 15:25:16;;;;;;;0.50;0.40;;;;;;;17.47;58.31;100731.03;10446671;28;20132;-59
2024/03/14 15:30:17;;;;;;;0.93;0.55;;;;;;;17.47;57.17;100716.81;10446959;28;20504;-59
2024/03/14 15:35:18;;;;;;;1.35;0.68;;;;;;;17.46;57.62;100718.72;10445417;28;20025;-58
2024/03/14 15:40:22;;;;;;;1.20;0.40;;;;;;;17.45;57.55;100719.00;10447186;28;20021;-59
2024/03/14 15:45:25;;;;;;;7.28;1.00;;;;;;;17.43;57.86;100718.50;10446172;28;20267;-57
2024/03/14 15:50:26;;;;;;;2.38;0.52;;;;;;;17.42;57.82;100706.19;10446156;28;20025;-58
2024/03/14 15:55:28;;;;;;;3.10;0.60;;;;;;;17.40;58.05;100700.28;10446137;28;20035;-58
2024/03/14 16:00:30;;;;;;;2.38;0.60;;;;;;;17.40;58.24;100701.06;10446299;28;20060;-58
2024/03/14 16:05:30;;;;;;;9.05;1.05;;;;;;;17.40;58.29;100700.28;10445442;28;20017;-59
2024/03/14 16:10:31;;;;;;;3.42;0.90;;;;;;;17.37;58.48;100690.16;10445682;28;20388;-58
2024/03/14 16:15:31;;;;;;;2.70;0.90;;;;;;;17.37;57.59;100690.16;10446395;28;20045;-58
2024/03/14 16:20:31;;;;;;;2.90;0.93;;;;;;;17.36;57.17;100680.50;10447231;28;20751;-59
2024/03/14 16:25:35;;;;;;;2.33;0.88;;;;;;;17.34;57.65;100677.31;10446532;28;20020;-59
2024/03/14 16:30:37;;;;;;;1.98;0.73;;;;;;;17.34;58.99;100686.16;10447247;28;20028;-59
2024/03/14 16:35:39;;;;;;;2.40;0.70;;;;;;;17.34;58.01;100680.81;10446302;28;20671;-59
2024/03/14 16:40:39;;;;;;;4.53;0.82;;;;;;;17.33;58.87;100678.41;10446915;28;20068;-57
2024/03/14 16:45:40;;;;;;;3.30;0.70;;;;;;;17.32;58.34;100676.81;10444996;28;20108;-59
2024/03/14 16:50:41;;;;;;;3.28;1.08;;;;;;;17.31;57.91;100676.03;10448510;28;20387;-58
2024/03/14 16:55:41;;;;;;;1.67;0.57;;;;;;;17.31;57.54;100675.22;10447847;28;20021;-57
2024/03/14 17:00:42;;;;;;;1.85;0.75;;;;;;;17.29;57.80;100667.47;10451177;28;20036;-58
2024/03/14 17:05:43;;;;;;;1.48;0.63;;;;;;;17.30;58.05;100665.59;10452283;28;20029;-59
2024/03/14 17:10:43;;;;;;;6.17;1.97;;;;;;;17.31;59.09;100659.16;10452189;28;20511;-62
2024/03/14 17:15:44;;;;;;;12.52;2.72;;;;;;;17.48;58.19;100654.06;10450676;28;20299;-60
2024/03/14 17:20:45;;;;;;;19.08;6.20;;;;;;;17.57;59.79;100660.38;10453105;28;20415;-60
2024/03/14 17:25:48;;;;;;;15.02;5.85;;;;;;;17.70;63.39;100650.84;10450590;28;20032;-59
2024/03/14 17:30:49;;;;;;;11.75;3.00;;;;;;;17.83;60.50;100658.97;10451070;28;20360;-59
2024/03/14 17:35:49;;;;;;;16.08;3.75;;;;;;;17.86;61.26;100652.22;10450266;28;20029;-62
2024/03/14 17:40:49;;;;;;;13.77;3.10;;;;;;;17.90;60.38;100642.50;10450245;28;20028;-59
2024/03/14 17:45:50;;;;;;;12.98;3.40;;;;;;;17.89;61.09;100638.22;10450192;28;20630;-57
2024/03/14 17:50:51;;;;;;;21.50;4.75;;;;;;;17.90;60.58;100630.97;10450519;28;20056;-58
2024/03/14 17:55:51;;;;;;;19.40;4.60;;;;;;;17.91;60.37;100638.72;10449546;28;20029;-59
2024/03/14 18:00:52;;;;;;;15.30;4.47;;;;;;;17.72;59.93;100635.25;10449456;28;20107;-60
2024/03/14 18:05:53;;;;;;;15.20;4.38;;;;;;;17.65;61.32;100632.94;10450070;28;20568;-60
2024/03/14 18:10:53;;;;;;;16.87;3.30;;;;;;;17.58;60.46;100632.50;10447658;28;20488;-60
2024/03/14 18:15:53;;;;;;;12.77;4.43;;;;;;;17.54;60.30;100637.66;10448428;28;20299;-59
2024/03/14 18:20:53;;;;;;;12.10;3.80;;;;;;;17.54;60.09;100650.25;10448908;28;20293;-61
2024/03/14 18:25:55;;;;;;;8.90;3.50;;;;;;;17.54;59.65;100648.38;10448342;28;20025;-61
2024/03/14 18:30:55;;;;;;;9.57;3.00;;;;;;;17.51;60.12;100656.97;10446763;28;20278;-61
2024/03/14 18:35:56;;;;;;;9.53;2.57;;;;;;;17.45;59.60;100657.34;10449618;28;20408;-61
2024/03/14 18:40:56;;;;;;;10.73;2.87;;;;;;;17.42;59.43;100650.69;10450095;28;20278;-61
2024/03/14 18:45:57;;;;;;;8.80;2.95;;;;;;;17.43;60.39;100654.16;10449001;28;20350;-61
2024/03/14 18:50:57;;;;;;;11.93;3.20;;;;;;;17.40;60.17;100649.34;10448606;28;20721;-61
2024/03/14 18:55:59;;;;;;;10.98;2.15;;;;;;;17.38;60.38;100644.28;10446306;28;20279;-60
2024/03/14 19:01:06;;;;;;;6.88;2.63;;;;;;;17.37;59.23;100645.38;10448230;28;20081;-61
2024/03/14 19:06:07;;;;;;;8.98;3.03;;;;;;;17.36;59.77;100643.78;10433718;28;20079;-60
2024/03/14 19:11:07;;;;;;;10.13;2.92;;;;;;;17.38;59.02;100632.78;10443910;28;20076;-59
2024/03/14 19:16:10;;;;;;;6.95;2.10;;;;;;;17.35;59.57;100636.84;10447231;28;20683;-61
2024/03/14 19:21:18;;;;;;;7.43;2.10;;;;;;;17.34;60.27;100627.19;10446721;28;20593;-60
2024/03/14 19:26:19;;;;;;;6.70;2.38;;;;;;;17.34;58.67;100629.09;10447581;28;20096;-60
2024/03/14 19:31:21;;;;;;;7.40;2.35;;;;;;;17.34;58.48;100631.75;10447562;28;20661;-60
2024/03/14 19:36:21;;;;;;;7.50;2.35;;;;;;;17.35;59.00;100620.75;10447771;28;20021;-60
2024/03/14 19:41:21;;;;;;;7.27;2.60;;;;;;;17.37;59.54;100610.53;10433961;28;20021;-61
2024/03/14 19:46:22;;;;;;;6.22;2.08;;;;;;;17.37;59.88;100613.22;10447773;28;20346;-60
2024/03/14 19:51:23;;;;;;;8.75;2.15;;;;;;;17.42;59.85;100601.66;10446807;28;20025;-60
2024/03/14 19:56:24;;;;;;;7.22;2.47;;;;;;;17.42;59.89;100605.13;10446878;28;20033;-60
2024/03/14 20:01:24;;;;;;;4.88;1.85;;;;;;;17.40;59.81;100599.22;10443183;28;20645;-60
2024/03/14 20:06:25;;;;;;;10.32;2.65;;;;;;;17.41;58.79;100600.06;10441413;28;20025;-60
2024/03/14 20:11:25;;;;;;;4.47;2.27;;;;;;;17.37;59.13;100594.44;10431775;28;20069;-60
2024/03/14 20:16:25;;;;;;;3.78;1.77;;;;;;;17.39;58.89;100596.84;10445414;28;20302;-60
2024/03/14 20:21:29;;;;;;;6.13;1.38;;;;;;;17.39;59.32;100594.94;10447047;28;20028;-60
2024/03/14 20:26:29;;;;;;;5.40;1.73;;;;;;;17.39;59.12;100597.63;10454999;28;20025;-59
2024/03/14 20:31:30;;;;;;;3.13;1.63;;;;;;;17.36;58.48;100603.59;10451546;28;20032;-60
2024/03/14 20:36:31;;;;;;;3.43;1.40;;;;;;;17.36;58.35;100592.88;10448725;28;20291;-60
2024/03/14 20:41:31;;;;;;;7.45;2.17;;;;;;;17.33;58.88;100585.41;10453970;28;20267;-60
2024/03/14 20:46:32;;;;;;;4.60;1.70;;;;;;;17.32;58.01;100575.78;10454080;28;20102;-58
2024/03/14 20:51:36;;;;;;;4.03;1.67;;;;;;;17.33;59.12;100584.63;10450652;28;20857;-59
2024/03/14 20:56:44;;;;;;;3.42;1.65;;;;;;;17.32;59.46;100575.78;10453217;28;20083;-59
2024/03/14 21:01:45;;;;;;;4.60;1.53;;;;;;;17.31;58.92;100568.84;10453085;28;20032;-59
2024/03/14 21:06:45;;;;;;;3.90;2.37;;;;;;;17.31;57.96;100573.41;10453495;28;20028;-60
2024/03/14 21:11:45;;;;;;;4.70;1.47;;;;;;;17.31;57.78;100574.19;10452682;28;20348;-59
2024/03/14 21:16:46;;;;;;;4.72;1.90;;;;;;;17.31;58.15;100576.88;10452965;28;20287;-60
2024/03/14 21:21:47;;;;;;;7.05;2.03;;;;;;;17.29;58.77;100570.22;10452384;28;20029;-59
2024/03/14 21:26:47;;;;;;;6.80;1.90;;;;;;;17.30;58.70;100571.81;10452258;28;20407;-59
2024/03/14 21:31:47;;;;;;;2.30;1.10;;;;;;;17.30;58.02;100580.63;10452070;28;20313;-60
2024/03/14 21:36:48;;;;;;;2.28;1.67;;;;;;;17.29;57.90;100575.56;10451338;28;21040;-59
2024/03/14 21:41:48;;;;;;;3.95;1.33;;;;;;;17.27;59.02;100569.69;10452042;28;20025;-60
2024/03/14 21:46:49;;;;;;;3.72;1.60;;;;;;;17.28;58.30;100582.78;10451778;28;20048;-60
2024/03/14 21:51:50;;;;;;;3.13;1.40;;;;;;;17.27;57.90;100573.16;10451321;28;20579;-60
2024/03/14 21:56:50;;;;;;;4.97;1.60;;;;;;;17.25;59.17;100573.44;10451402;28;20033;-60
2024/03/14 22:01:50;;;;;;;3.50;0.90;;;;;;;17.25;57.70;100570.78;10450935;28;20032;-60
2024/03/14 22:06:51;;;;;;;2.60;1.33;;;;;;;17.25;58.72;100564.63;10450766;28;21052;-59
2024/03/14 22:11:51;;;;;;;3.90;1.30;;;;;;;17.24;59.19;100566.50;10463714;28;20376;-60
2024/03/14 22:16:51;;;;;;;4.32;1.50;;;;;;;17.23;57.84;100554.19;10450825;28;20029;-60
2024/03/14 22:21:52;;;;;;;3.20;1.30;;;;;;;17.24;57.98;100557.66;10449958;28;20600;-59
2024/03/14 22:26:52;;;;;;;2.97;1.30;;;;;;;17.24;58.23;100568.38;10449595;28;20283;-59
2024/03/14 22:31:53;;;;;;;2.42;1.38;;;;;;;17.25;58.04;100564.63;10449303;28;20279;-58
2024/03/14 22:36:55;;;;;;;2.75;1.13;;;;;;;17.27;58.14;100567.00;10449734;28;20071;-60
2024/03/14 22:41:55;;;;;;;3.40;1.75;;;;;;;17.26;58.77;100560.84;10449165;28;20063;-60
2024/03/14 22:46:55;;;;;;;2.65;1.33;;;;;;;17.27;58.77;100557.06;10449257;28;20052;-59
2024/03/14 22:51:56;;;;;;;3.37;1.50;;;;;;;17.28;58.22;100552.50;10448918;28;20025;-59
2024/03/14 22:56:56;;;;;;;3.83;1.40;;;;;;;17.27;57.98;100553.59;10449151;28;20754;-59
2024/03/14 23:01:56;;;;;;;2.10;1.37;;;;;;;17.24;57.40;100547.75;10448460;28;20275;-59